Terminal Aerodrome Forecast
Issued by NWS

Home | Current Version | Previous Version | Text Only | Print | Product List | Glossary On
Versions: 1 2 3 4 5 6 7 8 9 10 11 12 13 14 15
886
FTUS42 KJAX 290534
TAFCRG
TAF
KCRG 290534Z 2906/3006 26002KT P6SM SKC
     FM291000 00000KT 6SM BR SKC
     FM291400 31005KT P6SM SCT050
     FM291800 10009KT P6SM FEW050=

USA.gov is the U.S. government's official web portal to all federal, state and local government web resources and services.